createdAt,value
2022-09-28T00:01:58.269Z,0.06
2022-09-28T00:04:27.055Z,0.03
2022-09-28T00:06:55.670Z,0.02
2022-09-28T00:09:24.301Z,0.00
2022-09-28T00:11:54.609Z,-0.06
2022-09-28T00:14:23.313Z,-0.07
2022-09-28T00:16:53.221Z,-0.11
2022-09-28T00:19:21.870Z,-0.12
2022-09-28T00:21:50.568Z,-0.15
2022-09-28T00:24:26.667Z,-0.11
2022-09-28T00:27:01.848Z,-0.09
2022-09-28T00:29:36.995Z,-0.10
2022-09-28T00:32:10.266Z,-0.03
2022-09-28T00:34:42.876Z,-0.05
2022-09-28T00:37:11.494Z,-0.06
2022-09-28T00:39:41.898Z,-0.07
2022-09-28T00:42:25.368Z,-0.03
2022-09-28T00:44:57.913Z,-0.04
2022-09-28T00:47:51.415Z,-0.07
2022-09-28T00:50:38.206Z,-0.04
2022-09-28T00:53:12.428Z,-0.03
2022-09-28T00:55:50.309Z,-0.04
2022-09-28T00:58:28.120Z,-0.11
2022-09-28T01:00:58.705Z,-0.03
2022-09-28T01:03:28.794Z,0.01
2022-09-28T01:06:01.018Z,0.04
2022-09-28T01:08:32.220Z,0.04
2022-09-28T01:11:01.236Z,0.09
2022-09-28T01:13:33.610Z,0.10
2022-09-28T01:16:14.682Z,0.16
2022-09-28T01:19:12.456Z,0.19
2022-09-28T01:21:56.621Z,0.20
2022-09-28T01:25:11.328Z,0.24
2022-09-28T01:27:58.202Z,0.25
2022-09-28T01:30:26.902Z,0.24
2022-09-28T01:33:07.715Z,0.25
2022-09-28T01:35:43.800Z,0.27
2022-09-28T01:38:22.114Z,0.29
2022-09-28T01:40:53.127Z,0.31
2022-09-28T01:43:30.717Z,0.37
2022-09-28T01:46:20.923Z,0.45
2022-09-28T01:49:18.698Z,0.50
2022-09-28T01:52:02.372Z,0.56
2022-09-28T01:54:42.640Z,0.60
2022-09-28T01:57:38.375Z,0.65
2022-09-28T02:00:13.847Z,0.79
2022-09-28T02:03:23.513Z,0.97
2022-09-28T02:06:12.345Z,1.09
2022-09-28T02:08:53.218Z,1.11
2022-09-28T02:11:26.333Z,1.18
2022-09-28T02:14:02.561Z,1.16
2022-09-28T02:16:41.690Z,1.25
2022-09-28T02:19:15.236Z,1.32
2022-09-28T02:22:01.078Z,1.42
2022-09-28T02:24:52.928Z,1.47
2022-09-28T02:27:31.856Z,1.52
2022-09-28T02:30:01.647Z,1.51
2022-09-28T02:32:34.197Z,1.57
2022-09-28T02:35:03.047Z,1.58
2022-09-28T02:37:33.610Z,1.59
2022-09-28T02:40:02.804Z,1.62
2022-09-28T02:43:36.225Z,1.69
2022-09-28T02:46:25.195Z,1.78
2022-09-28T02:49:23.521Z,1.79
2022-09-28T02:52:20.995Z,1.73
2022-09-28T02:55:14.098Z,1.62
2022-09-28T02:58:04.628Z,1.54
2022-09-28T03:00:41.915Z,1.53
2022-09-28T03:03:37.820Z,1.50
2022-09-28T03:06:39.836Z,1.40
2022-09-28T03:09:15.145Z,1.43
2022-09-28T03:11:49.474Z,1.54
2022-09-28T03:14:19.081Z,1.61
2022-09-28T03:16:53.244Z,1.69
2022-09-28T03:19:28.816Z,1.76
2022-09-28T03:21:57.548Z,1.77
2022-09-28T03:24:26.388Z,1.85
2022-09-28T03:26:55.184Z,1.86
2022-09-28T03:29:24.643Z,1.92
2022-09-28T03:32:03.956Z,1.95
2022-09-28T03:34:32.633Z,1.96
2022-09-28T03:37:01.888Z,1.99
2022-09-28T03:39:31.497Z,2.05
2022-09-28T03:42:03.631Z,2.08
2022-09-28T03:44:36.673Z,2.13
2022-09-28T03:47:23.965Z,2.22
2022-09-28T03:49:53.863Z,2.24
2022-09-28T03:52:22.603Z,2.24
2022-09-28T03:54:51.277Z,2.19
2022-09-28T03:57:19.797Z,2.12
2022-09-28T03:59:48.469Z,2.10
2022-09-28T04:02:19.420Z,2.14
2022-09-28T04:04:48.214Z,2.21
2022-09-28T04:07:16.739Z,2.26
2022-09-28T04:09:45.740Z,2.25
2022-09-28T04:12:14.847Z,2.33
2022-09-28T04:14:44.333Z,2.44
2022-09-28T04:17:13.299Z,2.48
2022-09-28T04:19:42.332Z,2.38
2022-09-28T04:22:32.515Z,2.42
2022-09-28T04:25:01.208Z,2.40
2022-09-28T04:27:49.726Z,2.41
2022-09-28T04:30:18.547Z,2.49
2022-09-28T04:32:48.110Z,2.56
2022-09-28T04:35:17.206Z,2.56
2022-09-28T04:37:45.877Z,2.52
2022-09-28T04:40:14.621Z,2.52
2022-09-28T04:42:44.346Z,2.44
2022-09-28T04:45:12.872Z,2.47
2022-09-28T04:47:45.662Z,2.47
2022-09-28T04:50:39.922Z,2.40
2022-09-28T04:53:16.768Z,2.36
2022-09-28T04:55:45.346Z,2.29
2022-09-28T04:58:14.355Z,2.20
2022-09-28T05:00:43.426Z,2.16
2022-09-28T05:03:23.558Z,2.12
2022-09-28T05:06:16.351Z,2.08
2022-09-28T05:08:49.863Z,2.06
2022-09-28T05:11:20.332Z,2.07
2022-09-28T05:13:50.836Z,2.07
2022-09-28T05:16:22.562Z,2.06
2022-09-28T05:19:10.659Z,2.06
2022-09-28T05:21:39.607Z,2.06
2022-09-28T05:24:09.300Z,2.07
2022-09-28T05:26:40.486Z,2.07
2022-09-28T05:29:11.428Z,2.06
2022-09-28T05:31:42.840Z,2.10
2022-09-28T05:34:11.519Z,2.15
2022-09-28T05:36:43.348Z,2.17
2022-09-28T05:39:12.883Z,2.19
2022-09-28T05:41:41.581Z,2.16
2022-09-28T05:44:10.266Z,2.16
2022-09-28T05:46:39.060Z,2.24
2022-09-28T05:49:07.641Z,2.23
2022-09-28T05:51:36.291Z,2.22
2022-09-28T05:54:06.166Z,2.25
2022-09-28T05:56:40.227Z,2.22
2022-09-28T05:59:09.814Z,2.15
2022-09-28T06:01:40.864Z,2.23
2022-09-28T06:04:12.313Z,2.27
2022-09-28T06:06:43.633Z,2.36
2022-09-28T06:09:12.263Z,2.42
2022-09-28T06:12:14.088Z,2.50
2022-09-28T06:14:47.114Z,2.52
2022-09-28T06:17:16.240Z,2.58
2022-09-28T06:19:49.767Z,2.73
2022-09-28T06:22:27.470Z,2.86
2022-09-28T06:25:06.012Z,2.95
2022-09-28T06:27:34.962Z,2.94
2022-09-28T06:30:03.657Z,3.02
2022-09-28T06:32:32.825Z,3.08
2022-09-28T06:35:01.522Z,3.21
2022-09-28T06:37:33.506Z,3.23
2022-09-28T06:40:03.841Z,3.25
2022-09-28T06:42:32.969Z,3.25
2022-09-28T06:45:32.341Z,3.37
2022-09-28T06:48:26.381Z,3.45
2022-09-28T06:50:54.957Z,3.57
2022-09-28T06:53:29.814Z,3.53
2022-09-28T06:56:03.091Z,3.53
2022-09-28T06:58:32.750Z,3.50
2022-09-28T07:01:04.144Z,3.54
2022-09-28T07:03:43.636Z,3.58
2022-09-28T07:06:27.551Z,3.55
2022-09-28T07:09:31.474Z,3.55
2022-09-28T07:12:17.109Z,3.52
2022-09-28T07:14:57.781Z,3.46
2022-09-28T07:17:29.809Z,3.39
2022-09-28T07:20:12.649Z,3.44
2022-09-28T07:22:48.829Z,3.41
2022-09-28T07:25:22.415Z,3.40
2022-09-28T07:28:21.641Z,3.44
2022-09-28T07:31:16.458Z,3.48
2022-09-28T07:33:56.573Z,3.50
2022-09-28T07:36:35.833Z,3.52
2022-09-28T07:39:04.910Z,3.47
2022-09-28T07:41:34.523Z,3.51
2022-09-28T07:44:08.555Z,3.52
2022-09-28T07:46:39.372Z,3.63
2022-09-28T07:49:16.069Z,3.80
2022-09-28T07:52:12.918Z,4.05
2022-09-28T07:55:03.334Z,4.29
2022-09-28T07:58:01.602Z,4.33
2022-09-28T08:00:45.992Z,4.40
2022-09-28T08:03:18.368Z,4.51
2022-09-28T08:05:47.880Z,4.68
2022-09-28T08:08:18.391Z,4.77
2022-09-28T08:10:47.745Z,4.92
2022-09-28T08:13:27.264Z,5.05
2022-09-28T08:16:14.668Z,5.14
2022-09-28T08:18:55.374Z,5.18
2022-09-28T08:21:44.285Z,5.11
2022-09-28T08:24:14.806Z,5.02
2022-09-28T08:26:44.839Z,4.97
2022-09-28T08:29:17.438Z,4.92
2022-09-28T08:32:02.069Z,4.93
2022-09-28T08:34:38.356Z,4.83
2022-09-28T08:37:20.175Z,4.85
2022-09-28T08:40:22.400Z,4.87
2022-09-28T08:43:19.157Z,4.90
2022-09-28T08:46:27.005Z,4.96
2022-09-28T08:49:45.496Z,5.02
2022-09-28T08:52:30.714Z,5.03
2022-09-28T08:55:33.084Z,5.11
2022-09-28T08:58:11.556Z,5.31
2022-09-28T09:00:47.706Z,5.49
2022-09-28T09:03:32.208Z,5.58
2022-09-28T09:07:04.299Z,5.47
2022-09-28T09:10:09.957Z,5.29
2022-09-28T09:12:49.234Z,5.20
2022-09-28T09:15:41.587Z,5.02
2022-09-28T09:18:45.777Z,4.99
2022-09-28T09:21:42.231Z,4.90
2022-09-28T09:24:28.128Z,4.82
2022-09-28T09:27:13.881Z,4.73
2022-09-28T09:30:04.524Z,4.69
2022-09-28T09:33:11.499Z,4.65
2022-09-28T09:36:13.376Z,4.61
2022-09-28T09:39:06.921Z,4.57
2022-09-28T09:42:06.466Z,4.60
2022-09-28T09:44:45.327Z,4.56
2022-09-28T09:47:41.734Z,4.52
2022-09-28T09:50:41.386Z,4.50
2022-09-28T09:53:25.576Z,4.45
2022-09-28T09:55:59.193Z,4.44
2022-09-28T09:59:03.431Z,4.43
2022-09-28T10:01:41.361Z,4.43
2022-09-28T10:04:36.885Z,4.43
2022-09-28T10:07:48.490Z,4.36
2022-09-28T10:10:23.385Z,4.28
2022-09-28T10:12:55.059Z,4.22
2022-09-28T10:15:29.398Z,4.14
2022-09-28T10:18:15.037Z,4.16
2022-09-28T10:21:01.932Z,4.17
2022-09-28T10:23:59.319Z,4.17
2022-09-28T10:26:42.823Z,4.04
2022-09-28T10:29:45.765Z,3.95
2022-09-28T10:32:26.696Z,3.87
2022-09-28T10:35:23.794Z,3.81
2022-09-28T10:38:05.083Z,3.78
2022-09-28T10:41:09.987Z,3.72
2022-09-28T10:44:07.331Z,3.67
2022-09-28T10:47:02.766Z,3.59
2022-09-28T10:49:47.355Z,3.60
2022-09-28T10:52:50.708Z,3.61
2022-09-28T10:55:58.211Z,3.62
2022-09-28T10:58:42.478Z,3.60
2022-09-28T11:01:23.508Z,3.59
2022-09-28T11:04:05.275Z,3.66
2022-09-28T11:06:40.010Z,3.68
2022-09-28T11:09:33.451Z,3.69
2022-09-28T11:12:14.735Z,3.70
2022-09-28T11:14:44.844Z,3.69
2022-09-28T11:17:29.510Z,3.68
2022-09-28T11:20:00.957Z,3.69
2022-09-28T11:22:34.611Z,3.70
2022-09-28T11:25:24.915Z,3.70
2022-09-28T11:27:53.425Z,3.74
2022-09-28T11:30:43.212Z,3.70
2022-09-28T11:33:42.981Z,3.72
2022-09-28T11:37:15.055Z,3.70
2022-09-28T11:40:12.928Z,3.70
2022-09-28T11:42:57.998Z,3.71
2022-09-28T11:45:46.368Z,3.63
2022-09-28T11:48:25.597Z,3.51
2022-09-28T11:51:06.757Z,3.47
2022-09-28T11:53:43.730Z,3.47
2022-09-28T11:56:23.769Z,3.44
2022-09-28T11:58:57.413Z,3.44
2022-09-28T12:02:02.125Z,3.39
2022-09-28T12:04:58.828Z,3.37
2022-09-28T12:07:35.718Z,3.36
2022-09-28T12:10:20.089Z,3.37
2022-09-28T12:13:04.378Z,3.34
2022-09-28T12:16:07.469Z,3.38
2022-09-28T12:18:44.721Z,3.40
2022-09-28T12:21:26.423Z,3.41
2022-09-28T12:24:23.490Z,3.34
2022-09-28T12:27:11.145Z,3.37
2022-09-28T12:30:03.257Z,3.37
2022-09-28T12:32:48.206Z,3.37
2022-09-28T12:35:51.799Z,3.37
2022-09-28T12:38:32.642Z,3.34
2022-09-28T12:41:13.136Z,3.28
2022-09-28T12:44:20.675Z,3.27
2022-09-28T12:47:19.204Z,3.29
2022-09-28T12:53:21.339Z,3.31
2022-09-28T12:56:02.177Z,3.31
2022-09-28T12:58:48.747Z,3.27
2022-09-28T13:01:39.928Z,3.22
2022-09-28T13:04:27.657Z,3.17
2022-09-28T13:06:59.767Z,3.13
2022-09-28T13:09:33.759Z,3.07
2022-09-28T13:12:13.557Z,3.01
2022-09-28T13:15:30.043Z,2.93
2022-09-28T13:18:11.403Z,2.90
2022-09-28T13:20:42.835Z,2.85
2022-09-28T13:23:21.657Z,2.78
2022-09-28T13:26:32.375Z,2.80
2022-09-28T13:29:21.481Z,2.76
2022-09-28T13:31:54.497Z,2.82
2022-09-28T13:34:27.836Z,2.85
2022-09-28T13:37:17.649Z,2.86
2022-09-28T13:39:46.206Z,2.85
2022-09-28T13:42:24.094Z,2.86
2022-09-28T13:45:02.401Z,2.83
2022-09-28T13:47:49.940Z,2.78
2022-09-28T13:50:26.137Z,2.78
2022-09-28T13:53:03.450Z,2.73
2022-09-28T13:55:48.470Z,2.69
2022-09-28T13:58:21.926Z,2.65
2022-09-28T14:01:13.021Z,2.63
2022-09-28T14:04:19.543Z,2.62
2022-09-28T14:06:55.782Z,2.59
2022-09-28T14:09:39.673Z,2.55
2022-09-28T14:12:45.404Z,2.53
2022-09-28T14:15:30.465Z,2.48
2022-09-28T14:18:08.902Z,2.43
2022-09-28T14:20:38.000Z,2.36
2022-09-28T14:23:25.819Z,2.35
2022-09-28T14:26:30.616Z,2.29
2022-09-28T14:29:28.913Z,2.24
2022-09-28T14:32:00.392Z,2.07
2022-09-28T14:34:37.708Z,2.17
2022-09-28T14:37:41.023Z,2.16
2022-09-28T14:40:35.249Z,2.07
2022-09-28T14:43:36.702Z,2.06
2022-09-28T14:46:12.037Z,1.99
2022-09-28T14:49:08.290Z,1.95
2022-09-28T14:51:40.374Z,1.94
2022-09-28T14:54:11.466Z,1.94
2022-09-28T14:56:58.111Z,2.01
2022-09-28T14:59:30.788Z,2.06
2022-09-28T15:02:07.214Z,2.10
2022-09-28T15:04:41.758Z,2.17
2022-09-28T15:07:23.669Z,2.18
2022-09-28T15:09:54.866Z,2.23
2022-09-28T15:12:31.672Z,2.27
2022-09-28T15:15:06.137Z,2.28
2022-09-28T15:17:42.071Z,2.30
2022-09-28T15:20:26.502Z,2.28
2022-09-28T15:22:58.004Z,2.31
2022-09-28T15:25:32.421Z,2.33
2022-09-28T15:28:18.406Z,2.30
2022-09-28T15:30:47.740Z,2.33
2022-09-28T15:33:46.317Z,2.35
2022-09-28T15:36:28.310Z,2.36
2022-09-28T15:39:07.759Z,2.29
2022-09-28T15:41:36.599Z,2.31
2022-09-28T15:44:15.211Z,2.30
2022-09-28T15:46:52.494Z,2.28
2022-09-28T15:49:41.772Z,2.24
2022-09-28T15:52:39.157Z,2.24
2022-09-28T15:55:23.588Z,2.24
2022-09-28T15:58:06.668Z,2.22
2022-09-28T16:00:36.967Z,2.22
2022-09-28T16:03:09.347Z,2.20
2022-09-28T16:06:05.954Z,2.16
2022-09-28T16:08:45.448Z,2.16
2022-09-28T16:11:36.944Z,2.18
2022-09-28T16:14:19.973Z,2.15
2022-09-28T16:16:50.831Z,2.01
2022-09-28T16:19:26.191Z,2.07
2022-09-28T16:22:00.347Z,2.05
2022-09-28T16:24:36.299Z,2.08
2022-09-28T16:27:07.394Z,2.04
2022-09-28T16:29:42.477Z,2.01
2022-09-28T16:32:26.396Z,2.01
2022-09-28T16:35:13.711Z,2.01
2022-09-28T16:37:43.384Z,2.00
2022-09-28T16:40:13.089Z,1.97
2022-09-28T16:42:48.893Z,1.95
2022-09-28T16:45:24.255Z,1.95
2022-09-28T16:47:55.922Z,1.91
2022-09-28T16:50:26.459Z,1.90
2022-09-28T16:53:21.226Z,1.91
2022-09-28T16:55:50.402Z,1.87
2022-09-28T16:58:19.243Z,1.85
2022-09-28T17:00:48.271Z,1.83
2022-09-28T17:03:21.444Z,1.80
2022-09-28T17:05:51.264Z,1.75
2022-09-28T17:08:22.708Z,1.63
2022-09-28T17:13:47.410Z,1.51
2022-09-28T17:16:19.771Z,1.47
2022-09-28T17:18:49.896Z,1.40
2022-09-28T17:21:20.644Z,1.27
2022-09-28T17:23:50.571Z,1.16
2022-09-28T17:26:34.991Z,1.14
2022-09-28T17:29:03.600Z,1.16
2022-09-28T17:31:33.092Z,1.21
2022-09-28T17:34:01.745Z,1.20
2022-09-28T17:36:30.913Z,1.21
2022-09-28T17:39:00.761Z,1.21
2022-09-28T17:41:29.664Z,1.15
2022-09-28T17:43:58.829Z,1.16
2022-09-28T17:46:33.540Z,1.16
2022-09-28T17:49:05.329Z,1.18
2022-09-28T17:51:39.968Z,1.14
2022-09-28T17:54:09.653Z,1.11
2022-09-28T17:56:38.263Z,1.11
2022-09-28T17:59:08.785Z,1.10
2022-09-28T18:01:40.220Z,1.09
2022-09-28T18:04:23.066Z,1.06
2022-09-28T18:07:01.269Z,1.01
2022-09-28T18:09:29.977Z,0.92
2022-09-28T18:12:04.591Z,0.83
2022-09-28T18:14:33.299Z,0.72
2022-09-28T18:17:01.935Z,0.61
2022-09-28T18:19:32.339Z,0.49
2022-09-28T18:22:01.859Z,0.38
2022-09-28T18:24:32.796Z,0.29
2022-09-28T18:27:01.557Z,0.29
2022-09-28T18:29:33.051Z,0.21
2022-09-28T18:32:03.603Z,0.18
2022-09-28T18:34:35.459Z,0.10
2022-09-28T18:37:06.030Z,0.07
2022-09-28T18:39:36.926Z,0.15
2022-09-28T18:42:06.098Z,0.15
2022-09-28T18:44:34.691Z,0.17
2022-09-28T18:47:03.445Z,0.22
2022-09-28T18:49:34.031Z,0.22
2022-09-28T18:52:03.401Z,0.24
2022-09-28T18:54:32.075Z,0.21
2022-09-28T18:57:00.822Z,0.14
2022-09-28T18:59:29.494Z,0.13
2022-09-28T19:01:58.505Z,0.03
2022-09-28T19:04:27.412Z,-0.04
2022-09-28T19:06:56.037Z,-0.11
2022-09-28T19:09:26.833Z,-0.14
2022-09-28T19:11:55.495Z,-0.10
2022-09-28T19:14:24.065Z,-0.04
2022-09-28T19:16:53.418Z,-0.02
2022-09-28T19:19:22.001Z,-0.08
2022-09-28T19:21:50.718Z,-0.06
2022-09-28T19:24:20.235Z,-0.09
2022-09-28T19:26:49.347Z,-0.09
2022-09-28T19:29:18.468Z,-0.11
2022-09-28T19:31:47.302Z,-0.05
2022-09-28T19:34:16.290Z,0.08
2022-09-28T19:36:44.963Z,0.26
2022-09-28T19:39:15.606Z,0.45
2022-09-28T19:41:49.702Z,0.57
2022-09-28T19:44:25.880Z,0.70
2022-09-28T19:46:56.764Z,0.78
2022-09-28T19:49:29.440Z,0.84
2022-09-28T19:52:14.904Z,0.93
2022-09-28T19:54:57.340Z,1.01
2022-09-28T19:57:31.388Z,1.06
2022-09-28T20:00:03.266Z,1.01
2022-09-28T20:02:36.313Z,1.01
2022-09-28T20:05:05.483Z,1.08
2022-09-28T20:07:35.217Z,1.11
2022-09-28T20:10:03.865Z,1.13
2022-09-28T20:12:34.135Z,1.15
2022-09-28T20:15:02.721Z,1.22
2022-09-28T20:17:32.439Z,1.28
2022-09-28T20:20:01.206Z,1.27
2022-09-28T20:22:31.613Z,1.20
2022-09-28T20:25:02.304Z,1.38
2022-09-28T20:27:31.099Z,1.44
2022-09-28T20:30:00.239Z,1.47
2022-09-28T20:32:33.430Z,1.55
2022-09-28T20:35:02.041Z,1.54
2022-09-28T20:37:31.819Z,1.57
2022-09-28T20:40:02.258Z,1.55
2022-09-28T20:42:32.459Z,1.58
2022-09-28T20:45:01.710Z,1.62
2022-09-28T20:47:31.949Z,1.65
2022-09-28T20:50:00.540Z,1.68
2022-09-28T20:52:29.150Z,1.69
2022-09-28T20:54:57.763Z,1.66
2022-09-28T20:57:26.664Z,1.64
2022-09-28T20:59:55.222Z,1.63
2022-09-28T21:02:24.349Z,1.62
2022-09-28T21:04:53.068Z,1.62
2022-09-28T21:07:21.739Z,1.62
2022-09-28T21:09:50.995Z,1.68
2022-09-28T21:12:19.696Z,1.70
2022-09-28T21:14:48.301Z,1.70
2022-09-28T21:17:16.824Z,1.71
2022-09-28T21:19:46.355Z,1.72
2022-09-28T21:22:15.002Z,1.75
2022-09-28T21:24:43.564Z,1.74
2022-09-28T21:27:12.312Z,1.67
2022-09-28T21:29:40.867Z,1.71
2022-09-28T21:32:09.600Z,1.69
2022-09-28T21:34:38.419Z,1.69
2022-09-28T21:37:06.985Z,1.69
2022-09-28T21:39:35.564Z,1.67
2022-09-28T21:42:04.131Z,1.64
2022-09-28T21:44:32.748Z,1.61
2022-09-28T21:47:02.674Z,1.59
2022-09-28T21:49:31.413Z,1.58
2022-09-28T21:51:59.981Z,1.63
2022-09-28T21:54:29.352Z,1.66
2022-09-28T21:56:58.067Z,1.64
2022-09-28T21:59:26.656Z,1.61
2022-09-28T22:01:56.739Z,1.61
2022-09-28T22:04:25.458Z,1.62
2022-09-28T22:06:54.117Z,1.61
2022-09-28T22:09:22.749Z,1.58
2022-09-28T22:11:51.670Z,1.59
2022-09-28T22:14:20.323Z,1.52
2022-09-28T22:16:48.967Z,1.59
2022-09-28T22:19:17.585Z,1.58
2022-09-28T22:21:46.428Z,1.62
2022-09-28T22:24:15.066Z,1.61
2022-09-28T22:26:43.728Z,1.63
2022-09-28T22:29:12.406Z,1.52
2022-09-28T22:31:42.092Z,1.59
2022-09-28T22:34:11.102Z,1.65
2022-09-28T22:36:39.738Z,1.69
2022-09-28T22:39:08.491Z,1.72
2022-09-28T22:41:37.100Z,1.72
2022-09-28T22:44:05.678Z,1.72
2022-09-28T22:46:34.434Z,1.75
2022-09-28T22:49:03.257Z,1.75
2022-09-28T22:51:32.380Z,1.78
2022-09-28T22:54:01.604Z,1.58
2022-09-28T22:56:30.448Z,1.64
2022-09-28T22:58:59.727Z,1.66
2022-09-28T23:01:31.749Z,1.63
2022-09-28T23:04:01.339Z,1.63
2022-09-28T23:06:31.301Z,1.61
2022-09-28T23:09:00.038Z,1.62
2022-09-28T23:11:29.470Z,1.66
2022-09-28T23:14:01.466Z,1.69
2022-09-28T23:16:30.681Z,1.72
2022-09-28T23:18:59.364Z,1.69
2022-09-28T23:21:28.530Z,1.74
2022-09-28T23:24:01.995Z,1.75
2022-09-28T23:26:33.642Z,1.75
2022-09-28T23:29:02.221Z,1.75
2022-09-28T23:31:32.568Z,1.79
2022-09-28T23:34:04.569Z,1.80
2022-09-28T23:36:33.790Z,1.80
2022-09-28T23:39:03.358Z,1.85
2022-09-28T23:41:31.953Z,1.93
2022-09-28T23:44:00.643Z,1.99
2022-09-28T23:46:29.412Z,2.11
2022-09-28T23:48:58.059Z,2.18
2022-09-28T23:51:27.301Z,2.28
2022-09-28T23:53:55.912Z,2.33
2022-09-28T23:56:24.533Z,2.27
2022-09-28T23:58:53.011Z,2.20
